sensor_id;sensor_type;location;lat;lon;timestamp;temperature;humidity
24522;DHT22;12680;57.804;12.190;2023-02-01T00:02:16;4.60;99.90
24522;DHT22;12680;57.804;12.190;2023-02-01T00:04:43;4.50;99.90
24522;DHT22;12680;57.804;12.190;2023-02-01T00:07:10;4.50;99.90
24522;DHT22;12680;57.804;12.190;2023-02-01T00:09:39;4.50;99.90
24522;DHT22;12680;57.804;12.190;2023-02-01T00:12:06;4.50;99.90
24522;DHT22;12680;57.804;12.190;2023-02-01T00:14:33;4.50;99.90
24522;DHT22;12680;57.804;12.190;2023-02-01T00:17:05;4.50;99.90
24522;DHT22;12680;57.804;12.190;2023-02-01T00:19:33;4.50;99.90
24522;DHT22;12680;57.804;12.190;2023-02-01T00:22:01;4.40;99.90
24522;DHT22;12680;57.804;12.190;2023-02-01T00:24:27;4.40;99.90
24522;DHT22;12680;57.804;12.190;2023-02-01T00:26:55;4.40;99.90
24522;DHT22;12680;57.804;12.190;2023-02-01T00:29:22;4.50;99.90
24522;DHT22;12680;57.804;12.190;2023-02-01T00:31:50;4.50;99.90
24522;DHT22;12680;57.804;12.190;2023-02-01T00:34:19;4.50;99.90
24522;DHT22;12680;57.804;12.190;2023-02-01T00:36:46;4.50;99.90
24522;DHT22;12680;57.804;12.190;2023-02-01T00:39:14;4.50;99.90
24522;DHT22;12680;57.804;12.190;2023-02-01T00:41:41;4.60;99.90
24522;DHT22;12680;57.804;12.190;2023-02-01T00:44:08;4.60;99.90
24522;DHT22;12680;57.804;12.190;2023-02-01T00:46:35;4.70;99.90
24522;DHT22;12680;57.804;12.190;2023-02-01T00:49:03;4.70;99.90
24522;DHT22;12680;57.804;12.190;2023-02-01T00:51:29;4.70;99.90
24522;DHT22;12680;57.804;12.190;2023-02-01T00:53:57;4.60;99.90
24522;DHT22;12680;57.804;12.190;2023-02-01T00:56:24;4.60;99.90
24522;DHT22;12680;57.804;12.190;2023-02-01T00:58:51;5.00;99.90
24522;DHT22;12680;57.804;12.190;2023-02-01T01:01:25;4.60;99.90
24522;DHT22;12680;57.804;12.190;2023-02-01T01:03:58;4.50;99.90
24522;DHT22;12680;57.804;12.190;2023-02-01T01:06:27;4.60;99.90
24522;DHT22;12680;57.804;12.190;2023-02-01T01:08:56;4.60;99.90
24522;DHT22;12680;57.804;12.190;2023-02-01T01:11:26;4.50;99.90
24522;DHT22;12680;57.804;12.190;2023-02-01T01:13:55;4.50;99.90
24522;DHT22;12680;57.804;12.190;2023-02-01T01:16:23;4.50;99.90
24522;DHT22;12680;57.804;12.190;2023-02-01T01:18:51;4.40;99.90
24522;DHT22;12680;57.804;12.190;2023-02-01T01:21:18;4.50;99.90
24522;DHT22;12680;57.804;12.190;2023-02-01T01:23:46;4.50;99.90
24522;DHT22;12680;57.804;12.190;2023-02-01T01:26:16;4.50;99.90
24522;DHT22;12680;57.804;12.190;2023-02-01T01:28:44;4.50;99.90
24522;DHT22;12680;57.804;12.190;2023-02-01T01:31:12;4.60;99.90
24522;DHT22;12680;57.804;12.190;2023-02-01T01:33:39;4.60;99.90
24522;DHT22;12680;57.804;12.190;2023-02-01T01:36:07;4.60;99.90
24522;DHT22;12680;57.804;12.190;2023-02-01T01:38:38;4.70;99.90
24522;DHT22;12680;57.804;12.190;2023-02-01T01:41:06;4.70;99.90
24522;DHT22;12680;57.804;12.190;2023-02-01T01:46:30;4.10;99.90
24522;DHT22;12680;57.804;12.190;2023-02-01T01:51:40;4.80;99.90
24522;DHT22;12680;57.804;12.190;2023-02-01T01:54:16;4.80;99.90
24522;DHT22;12680;57.804;12.190;2023-02-01T01:56:50;4.90;99.90
24522;DHT22;12680;57.804;12.190;2023-02-01T01:59:18;4.90;99.90
24522;DHT22;12680;57.804;12.190;2023-02-01T02:01:46;6.20;99.90
24522;DHT22;12680;57.804;12.190;2023-02-01T02:04:13;5.00;99.90
24522;DHT22;12680;57.804;12.190;2023-02-01T02:09:19;5.20;99.90
24522;DHT22;12680;57.804;12.190;2023-02-01T02:11:46;5.10;99.90
24522;DHT22;12680;57.804;12.190;2023-02-01T02:14:16;5.20;99.90
24522;DHT22;12680;57.804;12.190;2023-02-01T02:22:40;5.30;99.90
24522;DHT22;12680;57.804;12.190;2023-02-01T02:31:07;5.40;99.90
24522;DHT22;12680;57.804;12.190;2023-02-01T02:42:04;5.50;99.90
24522;DHT22;12680;57.804;12.190;2023-02-01T02:45:07;5.60;99.90
24522;DHT22;12680;57.804;12.190;2023-02-01T02:48:11;5.50;99.90
24522;DHT22;12680;57.804;12.190;2023-02-01T02:56:47;5.60;99.90
24522;DHT22;12680;57.804;12.190;2023-02-01T02:59:34;5.60;99.90
24522;DHT22;12680;57.804;12.190;2023-02-01T03:02:21;5.60;99.90
24522;DHT22;12680;57.804;12.190;2023-02-01T03:05:07;5.60;99.90
24522;DHT22;12680;57.804;12.190;2023-02-01T03:07:49;5.60;99.90
24522;DHT22;12680;57.804;12.190;2023-02-01T03:10:38;5.60;99.90
24522;DHT22;12680;57.804;12.190;2023-02-01T03:13:13;5.60;99.90
24522;DHT22;12680;57.804;12.190;2023-02-01T03:18:33;5.60;99.90
24522;DHT22;12680;57.804;12.190;2023-02-01T03:21:07;5.60;99.90
24522;DHT22;12680;57.804;12.190;2023-02-01T03:23:36;5.80;99.90
24522;DHT22;12680;57.804;12.190;2023-02-01T03:26:10;5.60;99.90
24522;DHT22;12680;57.804;12.190;2023-02-01T03:28:43;5.60;99.90
24522;DHT22;12680;57.804;12.190;2023-02-01T03:31:12;5.60;99.90
24522;DHT22;12680;57.804;12.190;2023-02-01T03:33:41;5.60;99.90
24522;DHT22;12680;57.804;12.190;2023-02-01T03:36:35;5.70;99.90
24522;DHT22;12680;57.804;12.190;2023-02-01T03:39:15;5.60;99.90
24522;DHT22;12680;57.804;12.190;2023-02-01T03:41:50;5.60;99.90
24522;DHT22;12680;57.804;12.190;2023-02-01T03:44:27;5.60;99.90
24522;DHT22;12680;57.804;12.190;2023-02-01T03:47:24;5.60;99.90
24522;DHT22;12680;57.804;12.190;2023-02-01T03:49:57;5.60;99.90
24522;DHT22;12680;57.804;12.190;2023-02-01T03:52:39;5.60;99.90
24522;DHT22;12680;57.804;12.190;2023-02-01T03:55:08;5.60;99.90
24522;DHT22;12680;57.804;12.190;2023-02-01T03:57:41;5.60;99.90
24522;DHT22;12680;57.804;12.190;2023-02-01T04:00:17;5.60;99.90
24522;DHT22;12680;57.804;12.190;2023-02-01T04:02:44;5.70;99.90
24522;DHT22;12680;57.804;12.190;2023-02-01T04:05:11;5.60;99.90
24522;DHT22;12680;57.804;12.190;2023-02-01T04:07:38;5.70;99.90
24522;DHT22;12680;57.804;12.190;2023-02-01T04:10:05;5.70;99.90
24522;DHT22;12680;57.804;12.190;2023-02-01T04:12:32;5.70;99.90
24522;DHT22;12680;57.804;12.190;2023-02-01T04:14:59;5.70;99.90
24522;DHT22;12680;57.804;12.190;2023-02-01T04:17:26;7.10;99.90
24522;DHT22;12680;57.804;12.190;2023-02-01T04:19:53;5.60;99.90
24522;DHT22;12680;57.804;12.190;2023-02-01T04:22:21;5.60;99.90
24522;DHT22;12680;57.804;12.190;2023-02-01T04:24:48;7.50;99.90
24522;DHT22;12680;57.804;12.190;2023-02-01T04:27:15;5.50;99.90
24522;DHT22;12680;57.804;12.190;2023-02-01T04:29:42;5.50;99.90
24522;DHT22;12680;57.804;12.190;2023-02-01T04:32:09;6.30;99.90
24522;DHT22;12680;57.804;12.190;2023-02-01T04:34:35;7.50;99.90
24522;DHT22;12680;57.804;12.190;2023-02-01T04:37:03;5.50;99.90
24522;DHT22;12680;57.804;12.190;2023-02-01T04:39:29;5.50;99.90
24522;DHT22;12680;57.804;12.190;2023-02-01T04:41:56;5.50;99.90
24522;DHT22;12680;57.804;12.190;2023-02-01T04:44:23;5.40;99.90
24522;DHT22;12680;57.804;12.190;2023-02-01T04:46:50;5.40;99.90
24522;DHT22;12680;57.804;12.190;2023-02-01T04:49:17;5.40;99.90
24522;DHT22;12680;57.804;12.190;2023-02-01T04:51:44;5.40;99.90
24522;DHT22;12680;57.804;12.190;2023-02-01T04:54:11;5.40;99.90
24522;DHT22;12680;57.804;12.190;2023-02-01T04:56:38;5.40;99.90
24522;DHT22;12680;57.804;12.190;2023-02-01T04:59:05;5.40;99.90
24522;DHT22;12680;57.804;12.190;2023-02-01T05:01:32;5.40;99.90
24522;DHT22;12680;57.804;12.190;2023-02-01T05:03:59;5.40;99.90
24522;DHT22;12680;57.804;12.190;2023-02-01T05:06:26;5.40;99.90
24522;DHT22;12680;57.804;12.190;2023-02-01T05:08:53;5.40;99.90
24522;DHT22;12680;57.804;12.190;2023-02-01T05:11:20;5.40;99.90
24522;DHT22;12680;57.804;12.190;2023-02-01T05:14:05;5.40;99.90
24522;DHT22;12680;57.804;12.190;2023-02-01T05:16:32;5.40;99.90
24522;DHT22;12680;57.804;12.190;2023-02-01T05:18:59;5.40;99.90
24522;DHT22;12680;57.804;12.190;2023-02-01T05:21:26;5.40;99.90
24522;DHT22;12680;57.804;12.190;2023-02-01T05:23:53;5.40;99.90
24522;DHT22;12680;57.804;12.190;2023-02-01T05:26:40;5.40;99.90
24522;DHT22;12680;57.804;12.190;2023-02-01T05:29:08;5.40;99.90
24522;DHT22;12680;57.804;12.190;2023-02-01T05:31:35;5.40;99.90
24522;DHT22;12680;57.804;12.190;2023-02-01T05:34:03;5.40;99.90
24522;DHT22;12680;57.804;12.190;2023-02-01T05:36:30;5.50;99.90
24522;DHT22;12680;57.804;12.190;2023-02-01T05:38:56;5.50;99.90
24522;DHT22;12680;57.804;12.190;2023-02-01T05:41:24;5.50;99.90
24522;DHT22;12680;57.804;12.190;2023-02-01T05:43:51;5.60;99.90
24522;DHT22;12680;57.804;12.190;2023-02-01T05:46:17;6.20;99.90
24522;DHT22;12680;57.804;12.190;2023-02-01T05:48:44;5.60;99.90
24522;DHT22;12680;57.804;12.190;2023-02-01T05:51:11;5.60;99.90
24522;DHT22;12680;57.804;12.190;2023-02-01T05:53:38;5.70;99.90
24522;DHT22;12680;57.804;12.190;2023-02-01T05:56:05;5.70;99.90
24522;DHT22;12680;57.804;12.190;2023-02-01T05:58:32;5.70;99.90
24522;DHT22;12680;57.804;12.190;2023-02-01T06:01:00;5.70;99.90
24522;DHT22;12680;57.804;12.190;2023-02-01T06:03:27;5.70;99.90
24522;DHT22;12680;57.804;12.190;2023-02-01T06:05:54;5.70;99.90
24522;DHT22;12680;57.804;12.190;2023-02-01T06:08:22;5.70;99.90
24522;DHT22;12680;57.804;12.190;2023-02-01T06:10:58;5.70;99.90
24522;DHT22;12680;57.804;12.190;2023-02-01T06:13:25;5.60;99.90
24522;DHT22;12680;57.804;12.190;2023-02-01T06:15:52;5.60;99.90
24522;DHT22;12680;57.804;12.190;2023-02-01T06:18:19;5.60;99.90
24522;DHT22;12680;57.804;12.190;2023-02-01T06:20:54;5.50;99.90
24522;DHT22;12680;57.804;12.190;2023-02-01T06:23:21;5.50;99.90
24522;DHT22;12680;57.804;12.190;2023-02-01T06:25:59;5.40;99.90
24522;DHT22;12680;57.804;12.190;2023-02-01T06:28:27;5.40;99.90
24522;DHT22;12680;57.804;12.190;2023-02-01T06:30:54;5.40;99.90
24522;DHT22;12680;57.804;12.190;2023-02-01T06:33:21;5.40;99.90
24522;DHT22;12680;57.804;12.190;2023-02-01T06:35:48;5.30;99.90
24522;DHT22;12680;57.804;12.190;2023-02-01T06:38:14;5.30;99.90
24522;DHT22;12680;57.804;12.190;2023-02-01T06:40:41;5.30;99.90
24522;DHT22;12680;57.804;12.190;2023-02-01T06:43:08;5.20;99.90
24522;DHT22;12680;57.804;12.190;2023-02-01T06:45:35;5.20;99.90
24522;DHT22;12680;57.804;12.190;2023-02-01T06:48:02;5.10;99.90
24522;DHT22;12680;57.804;12.190;2023-02-01T06:50:29;5.10;99.90
24522;DHT22;12680;57.804;12.190;2023-02-01T06:52:55;5.10;99.90
24522;DHT22;12680;57.804;12.190;2023-02-01T06:55:22;5.10;99.90
24522;DHT22;12680;57.804;12.190;2023-02-01T06:57:53;5.00;99.90
24522;DHT22;12680;57.804;12.190;2023-02-01T07:00:24;5.00;99.90
24522;DHT22;12680;57.804;12.190;2023-02-01T07:02:51;5.00;99.90
24522;DHT22;12680;57.804;12.190;2023-02-01T07:05:18;5.00;99.90
24522;DHT22;12680;57.804;12.190;2023-02-01T07:07:44;4.90;99.90
24522;DHT22;12680;57.804;12.190;2023-02-01T07:10:12;4.90;99.90
24522;DHT22;12680;57.804;12.190;2023-02-01T07:12:39;4.90;99.90
24522;DHT22;12680;57.804;12.190;2023-02-01T07:15:06;4.90;99.90
24522;DHT22;12680;57.804;12.190;2023-02-01T07:17:33;4.90;99.90
24522;DHT22;12680;57.804;12.190;2023-02-01T07:19:59;4.90;99.90
24522;DHT22;12680;57.804;12.190;2023-02-01T07:22:28;4.80;99.90
24522;DHT22;12680;57.804;12.190;2023-02-01T07:24:55;4.80;99.90
24522;DHT22;12680;57.804;12.190;2023-02-01T07:27:22;4.80;99.90
24522;DHT22;12680;57.804;12.190;2023-02-01T07:29:51;5.60;99.90
24522;DHT22;12680;57.804;12.190;2023-02-01T07:32:19;4.80;99.90
24522;DHT22;12680;57.804;12.190;2023-02-01T07:34:45;4.80;99.90
24522;DHT22;12680;57.804;12.190;2023-02-01T07:37:12;4.80;99.90
24522;DHT22;12680;57.804;12.190;2023-02-01T07:39:39;4.80;99.90
24522;DHT22;12680;57.804;12.190;2023-02-01T07:42:06;4.80;99.90
24522;DHT22;12680;57.804;12.190;2023-02-01T07:44:33;4.80;99.90
24522;DHT22;12680;57.804;12.190;2023-02-01T07:47:00;4.80;99.90
24522;DHT22;12680;57.804;12.190;2023-02-01T07:49:26;4.90;99.90
24522;DHT22;12680;57.804;12.190;2023-02-01T07:51:53;4.90;99.90
24522;DHT22;12680;57.804;12.190;2023-02-01T07:54:20;5.00;99.90
24522;DHT22;12680;57.804;12.190;2023-02-01T07:56:46;5.00;99.90
24522;DHT22;12680;57.804;12.190;2023-02-01T07:59:13;5.00;99.90
24522;DHT22;12680;57.804;12.190;2023-02-01T08:01:42;5.00;99.90
24522;DHT22;12680;57.804;12.190;2023-02-01T08:04:11;5.10;99.90
24522;DHT22;12680;57.804;12.190;2023-02-01T08:06:39;5.10;99.90
24522;DHT22;12680;57.804;12.190;2023-02-01T08:09:07;5.20;99.90
24522;DHT22;12680;57.804;12.190;2023-02-01T08:11:37;7.00;99.90
24522;DHT22;12680;57.804;12.190;2023-02-01T08:14:05;5.20;99.90
24522;DHT22;12680;57.804;12.190;2023-02-01T08:16:33;5.20;99.90
24522;DHT22;12680;57.804;12.190;2023-02-01T08:19:02;5.20;99.90
24522;DHT22;12680;57.804;12.190;2023-02-01T08:21:29;5.10;99.90
24522;DHT22;12680;57.804;12.190;2023-02-01T08:24:06;5.10;99.90
24522;DHT22;12680;57.804;12.190;2023-02-01T08:26:32;5.10;99.90
24522;DHT22;12680;57.804;12.190;2023-02-01T08:29:01;5.10;99.90
24522;DHT22;12680;57.804;12.190;2023-02-01T08:31:30;5.10;99.90
24522;DHT22;12680;57.804;12.190;2023-02-01T08:34:00;5.10;99.90
24522;DHT22;12680;57.804;12.190;2023-02-01T08:36:29;5.10;99.90
24522;DHT22;12680;57.804;12.190;2023-02-01T08:38:56;5.10;99.90
24522;DHT22;12680;57.804;12.190;2023-02-01T08:41:24;5.10;99.90
24522;DHT22;12680;57.804;12.190;2023-02-01T08:43:52;5.20;99.90
24522;DHT22;12680;57.804;12.190;2023-02-01T08:46:20;5.20;99.90
24522;DHT22;12680;57.804;12.190;2023-02-01T08:48:48;5.20;99.90
24522;DHT22;12680;57.804;12.190;2023-02-01T08:51:17;5.20;99.90
24522;DHT22;12680;57.804;12.190;2023-02-01T08:53:44;5.30;99.90
24522;DHT22;12680;57.804;12.190;2023-02-01T08:56:12;5.30;99.90
24522;DHT22;12680;57.804;12.190;2023-02-01T08:58:40;5.30;99.90
24522;DHT22;12680;57.804;12.190;2023-02-01T09:01:09;5.30;99.90
24522;DHT22;12680;57.804;12.190;2023-02-01T09:03:36;5.40;99.90
24522;DHT22;12680;57.804;12.190;2023-02-01T09:06:04;5.40;99.90
24522;DHT22;12680;57.804;12.190;2023-02-01T09:08:32;5.40;99.90
24522;DHT22;12680;57.804;12.190;2023-02-01T09:11:05;5.50;99.90
24522;DHT22;12680;57.804;12.190;2023-02-01T09:13:32;5.50;99.90
24522;DHT22;12680;57.804;12.190;2023-02-01T09:16:00;5.50;99.90
24522;DHT22;12680;57.804;12.190;2023-02-01T09:18:27;5.60;99.90
24522;DHT22;12680;57.804;12.190;2023-02-01T09:20:54;5.70;99.90
24522;DHT22;12680;57.804;12.190;2023-02-01T09:23:20;7.00;99.90
24522;DHT22;12680;57.804;12.190;2023-02-01T09:25:47;5.80;99.90
24522;DHT22;12680;57.804;12.190;2023-02-01T09:28:17;5.80;99.90
24522;DHT22;12680;57.804;12.190;2023-02-01T09:30:44;6.70;99.90
24522;DHT22;12680;57.804;12.190;2023-02-01T09:33:11;6.00;99.90
24522;DHT22;12680;57.804;12.190;2023-02-01T09:35:38;6.00;99.90
24522;DHT22;12680;57.804;12.190;2023-02-01T09:38:05;6.10;99.90
24522;DHT22;12680;57.804;12.190;2023-02-01T09:40:33;6.20;99.90
24522;DHT22;12680;57.804;12.190;2023-02-01T09:43:16;6.30;99.90
24522;DHT22;12680;57.804;12.190;2023-02-01T09:48:42;6.40;99.90
24522;DHT22;12680;57.804;12.190;2023-02-01T09:51:20;6.40;99.90
24522;DHT22;12680;57.804;12.190;2023-02-01T10:01:50;6.50;99.90
24522;DHT22;12680;57.804;12.190;2023-02-01T10:04:17;6.60;99.90
24522;DHT22;12680;57.804;12.190;2023-02-01T10:09:33;6.70;99.90
24522;DHT22;12680;57.804;12.190;2023-02-01T10:12:36;6.70;99.90
24522;DHT22;12680;57.804;12.190;2023-02-01T10:15:28;6.60;99.90
24522;DHT22;12680;57.804;12.190;2023-02-01T10:21:09;6.70;99.90
24522;DHT22;12680;57.804;12.190;2023-02-01T10:24:05;6.70;99.90
24522;DHT22;12680;57.804;12.190;2023-02-01T10:26:47;6.70;99.90
24522;DHT22;12680;57.804;12.190;2023-02-01T10:29:24;6.70;99.90
24522;DHT22;12680;57.804;12.190;2023-02-01T10:31:52;6.60;99.90
24522;DHT22;12680;57.804;12.190;2023-02-01T10:34:24;6.60;99.90
24522;DHT22;12680;57.804;12.190;2023-02-01T10:37:04;6.70;99.90
24522;DHT22;12680;57.804;12.190;2023-02-01T10:39:35;6.70;99.90
24522;DHT22;12680;57.804;12.190;2023-02-01T10:42:03;6.70;99.90
24522;DHT22;12680;57.804;12.190;2023-02-01T10:44:31;6.60;99.90
24522;DHT22;12680;57.804;12.190;2023-02-01T10:47:01;6.60;99.90
24522;DHT22;12680;57.804;12.190;2023-02-01T10:52:14;6.70;99.90
24522;DHT22;12680;57.804;12.190;2023-02-01T10:54:42;6.70;99.90
24522;DHT22;12680;57.804;12.190;2023-02-01T10:57:21;6.80;99.90
24522;DHT22;12680;57.804;12.190;2023-02-01T10:59:48;6.90;99.90
24522;DHT22;12680;57.804;12.190;2023-02-01T11:05:06;8.30;99.90
24522;DHT22;12680;57.804;12.190;2023-02-01T11:07:36;6.90;99.90
24522;DHT22;12680;57.804;12.190;2023-02-01T11:10:04;6.90;99.90
24522;DHT22;12680;57.804;12.190;2023-02-01T11:12:36;7.00;99.90
24522;DHT22;12680;57.804;12.190;2023-02-01T11:15:18;7.00;99.90
24522;DHT22;12680;57.804;12.190;2023-02-01T11:17:47;6.90;99.90
24522;DHT22;12680;57.804;12.190;2023-02-01T11:20:20;6.90;99.90
24522;DHT22;12680;57.804;12.190;2023-02-01T11:22:54;6.90;99.90
24522;DHT22;12680;57.804;12.190;2023-02-01T11:25:22;6.90;99.90
24522;DHT22;12680;57.804;12.190;2023-02-01T11:27:51;6.90;99.90
24522;DHT22;12680;57.804;12.190;2023-02-01T11:30:32;7.00;99.90
24522;DHT22;12680;57.804;12.190;2023-02-01T11:33:00;7.00;99.90
24522;DHT22;12680;57.804;12.190;2023-02-01T11:35:31;7.00;99.90
24522;DHT22;12680;57.804;12.190;2023-02-01T11:37:59;7.00;99.90
24522;DHT22;12680;57.804;12.190;2023-02-01T11:40:34;7.00;99.90
24522;DHT22;12680;57.804;12.190;2023-02-01T11:43:27;7.00;99.90
24522;DHT22;12680;57.804;12.190;2023-02-01T11:45:59;6.90;99.90
24522;DHT22;12680;57.804;12.190;2023-02-01T11:48:29;6.90;99.90
24522;DHT22;12680;57.804;12.190;2023-02-01T11:56:37;7.00;99.90
24522;DHT22;12680;57.804;12.190;2023-02-01T12:01:52;7.00;99.90
24522;DHT22;12680;57.804;12.190;2023-02-01T12:04:39;7.00;99.90
24522;DHT22;12680;57.804;12.190;2023-02-01T12:08:02;7.10;99.90
24522;DHT22;12680;57.804;12.190;2023-02-01T12:10:16;5.40;99.90
24522;DHT22;12680;57.804;12.190;2023-02-01T12:16:01;7.20;99.90
24522;DHT22;12680;57.804;12.190;2023-02-01T12:21:56;7.40;99.90
24522;DHT22;12680;57.804;12.190;2023-02-01T12:24:36;7.50;99.90
24522;DHT22;12680;57.804;12.190;2023-02-01T12:36:09;7.30;99.90
24522;DHT22;12680;57.804;12.190;2023-02-01T12:39:05;7.20;99.90
24522;DHT22;12680;57.804;12.190;2023-02-01T12:47:28;7.10;99.90
24522;DHT22;12680;57.804;12.190;2023-02-01T12:52:51;7.10;99.90
24522;DHT22;12680;57.804;12.190;2023-02-01T12:55:23;7.10;99.90
24522;DHT22;12680;57.804;12.190;2023-02-01T12:58:15;7.10;99.90
24522;DHT22;12680;57.804;12.190;2023-02-01T13:00:47;7.10;99.90
24522;DHT22;12680;57.804;12.190;2023-02-01T13:06:03;7.00;99.90
24522;DHT22;12680;57.804;12.190;2023-02-01T13:08:56;7.00;99.90
24522;DHT22;12680;57.804;12.190;2023-02-01T13:11:42;7.00;99.90
24522;DHT22;12680;57.804;12.190;2023-02-01T13:14:29;7.10;99.90
24522;DHT22;12680;57.804;12.190;2023-02-01T13:17:22;7.10;99.90
24522;DHT22;12680;57.804;12.190;2023-02-01T13:20:03;7.10;99.90
24522;DHT22;12680;57.804;12.190;2023-02-01T13:28:10;7.10;99.90
24522;DHT22;12680;57.804;12.190;2023-02-01T13:31:29;7.10;99.90
24522;DHT22;12680;57.804;12.190;2023-02-01T13:39:20;7.00;99.90
24522;DHT22;12680;57.804;12.190;2023-02-01T13:42:00;7.00;99.90
24522;DHT22;12680;57.804;12.190;2023-02-01T13:47:32;7.10;99.90
24522;DHT22;12680;57.804;12.190;2023-02-01T13:52:42;7.10;99.90
24522;DHT22;12680;57.804;12.190;2023-02-01T13:57:42;7.20;99.90
24522;DHT22;12680;57.804;12.190;2023-02-01T14:00:31;7.20;99.90
24522;DHT22;12680;57.804;12.190;2023-02-01T14:10:55;7.10;99.90
24522;DHT22;12680;57.804;12.190;2023-02-01T14:13:39;7.00;99.90
24522;DHT22;12680;57.804;12.190;2023-02-01T14:21:33;6.90;99.90
24522;DHT22;12680;57.804;12.190;2023-02-01T14:24:23;6.80;99.90
24522;DHT22;12680;57.804;12.190;2023-02-01T14:26:52;6.80;99.90
24522;DHT22;12680;57.804;12.190;2023-02-01T14:29:25;6.80;99.90
24522;DHT22;12680;57.804;12.190;2023-02-01T14:47:51;6.50;99.90
24522;DHT22;12680;57.804;12.190;2023-02-01T14:56:00;6.30;99.90
24522;DHT22;12680;57.804;12.190;2023-02-01T14:58:45;6.30;99.90
24522;DHT22;12680;57.804;12.190;2023-02-01T15:01:22;6.30;99.90
24522;DHT22;12680;57.804;12.190;2023-02-01T15:04:05;6.10;99.90
24522;DHT22;12680;57.804;12.190;2023-02-01T15:06:46;6.00;99.90
24522;DHT22;12680;57.804;12.190;2023-02-01T15:09:18;5.90;99.90
24522;DHT22;12680;57.804;12.190;2023-02-01T15:14:39;5.70;99.90
24522;DHT22;12680;57.804;12.190;2023-02-01T15:17:22;5.70;99.90
24522;DHT22;12680;57.804;12.190;2023-02-01T15:20:01;5.70;99.90
24522;DHT22;12680;57.804;12.190;2023-02-01T15:22:34;5.60;99.90
24522;DHT22;12680;57.804;12.190;2023-02-01T15:25:02;5.60;99.90
24522;DHT22;12680;57.804;12.190;2023-02-01T15:27:31;5.60;99.90
24522;DHT22;12680;57.804;12.190;2023-02-01T15:30:12;5.80;99.90
24522;DHT22;12680;57.804;12.190;2023-02-01T15:32:42;5.70;99.90
24522;DHT22;12680;57.804;12.190;2023-02-01T15:35:32;5.70;99.90
24522;DHT22;12680;57.804;12.190;2023-02-01T15:38:18;5.90;99.90
24522;DHT22;12680;57.804;12.190;2023-02-01T15:46:31;6.10;99.90
24522;DHT22;12680;57.804;12.190;2023-02-01T15:48:58;6.20;99.90
24522;DHT22;12680;57.804;12.190;2023-02-01T15:51:28;6.30;99.90
24522;DHT22;12680;57.804;12.190;2023-02-01T15:53:58;6.30;99.90
24522;DHT22;12680;57.804;12.190;2023-02-01T15:56:36;6.30;99.90
24522;DHT22;12680;57.804;12.190;2023-02-01T15:59:06;7.80;99.90
24522;DHT22;12680;57.804;12.190;2023-02-01T16:01:39;6.20;99.90
24522;DHT22;12680;57.804;12.190;2023-02-01T16:04:23;6.10;99.90
24522;DHT22;12680;57.804;12.190;2023-02-01T16:06:51;6.00;99.90
24522;DHT22;12680;57.804;12.190;2023-02-01T16:09:24;5.90;99.90
24522;DHT22;12680;57.804;12.190;2023-02-01T16:11:55;5.90;99.90
24522;DHT22;12680;57.804;12.190;2023-02-01T16:14:23;5.90;99.90
24522;DHT22;12680;57.804;12.190;2023-02-01T16:16:51;5.90;99.90
24522;DHT22;12680;57.804;12.190;2023-02-01T16:19:19;7.80;99.90
24522;DHT22;12680;57.804;12.190;2023-02-01T16:21:46;5.90;99.90
24522;DHT22;12680;57.804;12.190;2023-02-01T16:24:13;7.00;99.90
24522;DHT22;12680;57.804;12.190;2023-02-01T16:26:40;5.90;99.90
24522;DHT22;12680;57.804;12.190;2023-02-01T16:29:07;5.80;99.90
24522;DHT22;12680;57.804;12.190;2023-02-01T16:31:37;5.80;99.90
24522;DHT22;12680;57.804;12.190;2023-02-01T16:34:05;5.70;99.90
24522;DHT22;12680;57.804;12.190;2023-02-01T16:36:33;5.70;99.90
24522;DHT22;12680;57.804;12.190;2023-02-01T16:39:00;5.60;99.90
24522;DHT22;12680;57.804;12.190;2023-02-01T16:41:29;5.50;99.90
24522;DHT22;12680;57.804;12.190;2023-02-01T16:43:56;5.50;99.90
24522;DHT22;12680;57.804;12.190;2023-02-01T16:46:25;5.40;99.90
24522;DHT22;12680;57.804;12.190;2023-02-01T16:48:56;5.40;99.90
24522;DHT22;12680;57.804;12.190;2023-02-01T16:51:25;5.40;99.90
24522;DHT22;12680;57.804;12.190;2023-02-01T16:53:53;5.40;99.90
24522;DHT22;12680;57.804;12.190;2023-02-01T16:56:30;5.40;99.90
24522;DHT22;12680;57.804;12.190;2023-02-01T16:58:58;5.50;99.90
24522;DHT22;12680;57.804;12.190;2023-02-01T17:01:25;5.50;99.90
24522;DHT22;12680;57.804;12.190;2023-02-01T17:03:52;5.60;99.90
24522;DHT22;12680;57.804;12.190;2023-02-01T17:06:22;5.70;99.90
24522;DHT22;12680;57.804;12.190;2023-02-01T17:08:52;5.80;99.90
24522;DHT22;12680;57.804;12.190;2023-02-01T17:11:20;6.90;99.90
24522;DHT22;12680;57.804;12.190;2023-02-01T17:13:47;5.70;99.90
24522;DHT22;12680;57.804;12.190;2023-02-01T17:16:30;5.70;99.90
24522;DHT22;12680;57.804;12.190;2023-02-01T17:19:02;5.70;99.90
24522;DHT22;12680;57.804;12.190;2023-02-01T17:21:41;5.80;99.90
24522;DHT22;12680;57.804;12.190;2023-02-01T17:24:13;5.80;99.90
24522;DHT22;12680;57.804;12.190;2023-02-01T17:26:41;5.80;99.90
24522;DHT22;12680;57.804;12.190;2023-02-01T17:29:09;5.90;99.90
24522;DHT22;12680;57.804;12.190;2023-02-01T17:31:42;5.90;99.90
24522;DHT22;12680;57.804;12.190;2023-02-01T17:34:10;6.00;99.90
24522;DHT22;12680;57.804;12.190;2023-02-01T17:36:38;6.00;99.90
24522;DHT22;12680;57.804;12.190;2023-02-01T17:39:08;6.10;99.90
24522;DHT22;12680;57.804;12.190;2023-02-01T17:41:36;6.10;99.90
24522;DHT22;12680;57.804;12.190;2023-02-01T17:44:03;6.10;99.90
24522;DHT22;12680;57.804;12.190;2023-02-01T17:46:31;6.10;99.90
24522;DHT22;12680;57.804;12.190;2023-02-01T17:48:57;5.80;99.90
24522;DHT22;12680;57.804;12.190;2023-02-01T17:51:26;5.50;99.90
24522;DHT22;12680;57.804;12.190;2023-02-01T17:53:53;5.30;99.90
24522;DHT22;12680;57.804;12.190;2023-02-01T17:56:23;5.30;99.90
24522;DHT22;12680;57.804;12.190;2023-02-01T17:58:50;5.20;99.90
24522;DHT22;12680;57.804;12.190;2023-02-01T18:01:22;5.10;99.90
24522;DHT22;12680;57.804;12.190;2023-02-01T18:03:50;5.10;99.90
24522;DHT22;12680;57.804;12.190;2023-02-01T18:06:22;5.00;99.90
24522;DHT22;12680;57.804;12.190;2023-02-01T18:08:49;4.90;99.90
24522;DHT22;12680;57.804;12.190;2023-02-01T18:11:19;4.80;99.90
24522;DHT22;12680;57.804;12.190;2023-02-01T18:13:47;4.70;99.90
24522;DHT22;12680;57.804;12.190;2023-02-01T18:16:26;4.60;99.90
24522;DHT22;12680;57.804;12.190;2023-02-01T18:18:53;4.50;99.90
24522;DHT22;12680;57.804;12.190;2023-02-01T18:21:21;4.40;99.90
24522;DHT22;12680;57.804;12.190;2023-02-01T18:23:49;4.40;99.90
24522;DHT22;12680;57.804;12.190;2023-02-01T18:26:17;4.20;99.90
24522;DHT22;12680;57.804;12.190;2023-02-01T18:28:44;4.20;99.90
24522;DHT22;12680;57.804;12.190;2023-02-01T18:31:31;4.10;99.90
24522;DHT22;12680;57.804;12.190;2023-02-01T18:33:59;4.00;99.90